sensor_id;sensor_type;location;lat;lon;timestamp;P1;durP1;ratioP1;P2;durP2;ratioP2
14300;SDS011;7234;59.306;18.024;2023-11-19T00:00:53;1.97;;;1.53;;
14300;SDS011;7234;59.306;18.024;2023-11-19T00:03:20;2.53;;;1.80;;
14300;SDS011;7234;59.306;18.024;2023-11-19T00:05:47;1.80;;;1.40;;
14300;SDS011;7234;59.306;18.024;2023-11-19T00:08:15;1.40;;;1.30;;
14300;SDS011;7234;59.306;18.024;2023-11-19T00:10:42;4.03;;;1.07;;
14300;SDS011;7234;59.306;18.024;2023-11-19T00:13:12;1.30;;;1.20;;
14300;SDS011;7234;59.306;18.024;2023-11-19T00:15:39;1.37;;;1.20;;
14300;SDS011;7234;59.306;18.024;2023-11-19T00:18:06;1.50;;;1.13;;
14300;SDS011;7234;59.306;18.024;2023-11-19T00:20:33;1.43;;;1.30;;
14300;SDS011;7234;59.306;18.024;2023-11-19T00:23:00;2.10;;;1.30;;
14300;SDS011;7234;59.306;18.024;2023-11-19T00:25:27;1.40;;;1.30;;
14300;SDS011;7234;59.306;18.024;2023-11-19T00:27:54;1.93;;;1.40;;
14300;SDS011;7234;59.306;18.024;2023-11-19T00:30:23;1.63;;;1.03;;
14300;SDS011;7234;59.306;18.024;2023-11-19T00:32:50;1.57;;;1.20;;
14300;SDS011;7234;59.306;18.024;2023-11-19T00:35:17;1.50;;;1.30;;
14300;SDS011;7234;59.306;18.024;2023-11-19T00:37:45;1.30;;;1.10;;
14300;SDS011;7234;59.306;18.024;2023-11-19T00:40:12;1.40;;;1.10;;
14300;SDS011;7234;59.306;18.024;2023-11-19T00:42:41;2.80;;;1.30;;
14300;SDS011;7234;59.306;18.024;2023-11-19T00:45:08;2.03;;;1.33;;
14300;SDS011;7234;59.306;18.024;2023-11-19T00:47:38;2.03;;;1.30;;
14300;SDS011;7234;59.306;18.024;2023-11-19T00:50:06;1.30;;;1.20;;
14300;SDS011;7234;59.306;18.024;2023-11-19T00:52:35;1.43;;;1.30;;
14300;SDS011;7234;59.306;18.024;2023-11-19T00:55:03;2.77;;;1.70;;
14300;SDS011;7234;59.306;18.024;2023-11-19T00:57:30;1.50;;;1.40;;
14300;SDS011;7234;59.306;18.024;2023-11-19T00:59:58;1.90;;;1.53;;
14300;SDS011;7234;59.306;18.024;2023-11-19T01:02:25;2.17;;;1.43;;
14300;SDS011;7234;59.306;18.024;2023-11-19T01:04:54;1.33;;;1.23;;
14300;SDS011;7234;59.306;18.024;2023-11-19T01:07:21;1.53;;;1.40;;
14300;SDS011;7234;59.306;18.024;2023-11-19T01:09:49;2.17;;;1.33;;
14300;SDS011;7234;59.306;18.024;2023-11-19T01:12:16;1.93;;;1.60;;
14300;SDS011;7234;59.306;18.024;2023-11-19T01:14:43;1.97;;;1.70;;
14300;SDS011;7234;59.306;18.024;2023-11-19T01:17:10;2.33;;;1.80;;
14300;SDS011;7234;59.306;18.024;2023-11-19T01:19:37;5.00;;;1.77;;
14300;SDS011;7234;59.306;18.024;2023-11-19T01:22:06;2.37;;;1.70;;
14300;SDS011;7234;59.306;18.024;2023-11-19T01:24:36;2.97;;;1.80;;
14300;SDS011;7234;59.306;18.024;2023-11-19T01:27:03;2.00;;;1.60;;
14300;SDS011;7234;59.306;18.024;2023-11-19T01:29:33;3.00;;;2.00;;
14300;SDS011;7234;59.306;18.024;2023-11-19T01:32:00;4.70;;;1.90;;
14300;SDS011;7234;59.306;18.024;2023-11-19T01:34:27;2.13;;;1.53;;
14300;SDS011;7234;59.306;18.024;2023-11-19T01:36:54;1.87;;;1.60;;
14300;SDS011;7234;59.306;18.024;2023-11-19T01:39:22;2.10;;;1.83;;
14300;SDS011;7234;59.306;18.024;2023-11-19T01:41:50;2.87;;;2.00;;
14300;SDS011;7234;59.306;18.024;2023-11-19T01:44:20;2.90;;;1.90;;
14300;SDS011;7234;59.306;18.024;2023-11-19T01:46:47;3.87;;;2.00;;
14300;SDS011;7234;59.306;18.024;2023-11-19T01:49:15;1.80;;;1.60;;
14300;SDS011;7234;59.306;18.024;2023-11-19T01:51:43;2.17;;;1.90;;
14300;SDS011;7234;59.306;18.024;2023-11-19T01:54:10;2.63;;;2.10;;
14300;SDS011;7234;59.306;18.024;2023-11-19T01:56:39;3.50;;;2.10;;
14300;SDS011;7234;59.306;18.024;2023-11-19T01:59:07;2.80;;;2.27;;
14300;SDS011;7234;59.306;18.024;2023-11-19T02:01:35;3.37;;;1.83;;
14300;SDS011;7234;59.306;18.024;2023-11-19T02:04:05;2.03;;;1.80;;
14300;SDS011;7234;59.306;18.024;2023-11-19T02:06:33;2.60;;;1.80;;
14300;SDS011;7234;59.306;18.024;2023-11-19T02:09:04;3.03;;;2.07;;
14300;SDS011;7234;59.306;18.024;2023-11-19T02:11:33;3.50;;;2.17;;
14300;SDS011;7234;59.306;18.024;2023-11-19T02:14:02;2.13;;;1.70;;
14300;SDS011;7234;59.306;18.024;2023-11-19T02:16:30;2.20;;;1.80;;
14300;SDS011;7234;59.306;18.024;2023-11-19T02:18:57;2.30;;;1.77;;
14300;SDS011;7234;59.306;18.024;2023-11-19T02:21:24;2.23;;;1.70;;
14300;SDS011;7234;59.306;18.024;2023-11-19T02:23:51;2.33;;;2.07;;
14300;SDS011;7234;59.306;18.024;2023-11-19T02:26:20;2.40;;;1.43;;
14300;SDS011;7234;59.306;18.024;2023-11-19T02:28:54;1.97;;;1.60;;
14300;SDS011;7234;59.306;18.024;2023-11-19T02:31:21;2.13;;;1.57;;
14300;SDS011;7234;59.306;18.024;2023-11-19T02:33:49;2.40;;;1.80;;
14300;SDS011;7234;59.306;18.024;2023-11-19T02:36:16;2.00;;;1.70;;
14300;SDS011;7234;59.306;18.024;2023-11-19T02:38:44;1.63;;;1.53;;
14300;SDS011;7234;59.306;18.024;2023-11-19T02:41:11;1.70;;;1.50;;
14300;SDS011;7234;59.306;18.024;2023-11-19T02:43:38;4.20;;;2.20;;
14300;SDS011;7234;59.306;18.024;2023-11-19T02:46:06;2.40;;;1.80;;
14300;SDS011;7234;59.306;18.024;2023-11-19T02:48:33;3.63;;;1.90;;
14300;SDS011;7234;59.306;18.024;2023-11-19T02:51:01;2.13;;;1.70;;
14300;SDS011;7234;59.306;18.024;2023-11-19T02:53:29;1.80;;;1.70;;
14300;SDS011;7234;59.306;18.024;2023-11-19T02:55:56;2.93;;;1.90;;
14300;SDS011;7234;59.306;18.024;2023-11-19T02:58:31;1.87;;;1.70;;
14300;SDS011;7234;59.306;18.024;2023-11-19T03:00:59;1.83;;;1.57;;
14300;SDS011;7234;59.306;18.024;2023-11-19T03:03:37;2.07;;;1.67;;
14300;SDS011;7234;59.306;18.024;2023-11-19T03:06:05;2.00;;;1.63;;
14300;SDS011;7234;59.306;18.024;2023-11-19T03:08:34;2.03;;;1.67;;
14300;SDS011;7234;59.306;18.024;2023-11-19T03:11:02;1.83;;;1.63;;
14300;SDS011;7234;59.306;18.024;2023-11-19T03:13:30;3.80;;;1.80;;
14300;SDS011;7234;59.306;18.024;2023-11-19T03:15:57;1.87;;;1.60;;
14300;SDS011;7234;59.306;18.024;2023-11-19T03:18:23;1.70;;;1.40;;
14300;SDS011;7234;59.306;18.024;2023-11-19T03:20:53;2.13;;;1.57;;
14300;SDS011;7234;59.306;18.024;2023-11-19T03:23:20;2.37;;;1.80;;
14300;SDS011;7234;59.306;18.024;2023-11-19T03:25:48;1.53;;;1.43;;
14300;SDS011;7234;59.306;18.024;2023-11-19T03:28:15;2.07;;;1.70;;
14300;SDS011;7234;59.306;18.024;2023-11-19T03:30:41;1.80;;;1.43;;
14300;SDS011;7234;59.306;18.024;2023-11-19T03:33:08;3.00;;;1.77;;
14300;SDS011;7234;59.306;18.024;2023-11-19T03:35:35;2.23;;;1.60;;
14300;SDS011;7234;59.306;18.024;2023-11-19T03:38:04;2.10;;;1.57;;
14300;SDS011;7234;59.306;18.024;2023-11-19T03:40:31;1.53;;;1.40;;
14300;SDS011;7234;59.306;18.024;2023-11-19T03:42:58;1.93;;;1.30;;
14300;SDS011;7234;59.306;18.024;2023-11-19T03:45:25;1.40;;;1.30;;
14300;SDS011;7234;59.306;18.024;2023-11-19T03:47:52;3.17;;;1.20;;
14300;SDS011;7234;59.306;18.024;2023-11-19T03:50:19;2.50;;;1.30;;
14300;SDS011;7234;59.306;18.024;2023-11-19T03:52:47;1.67;;;1.40;;
14300;SDS011;7234;59.306;18.024;2023-11-19T03:55:15;2.10;;;1.40;;
14300;SDS011;7234;59.306;18.024;2023-11-19T03:57:42;1.30;;;1.20;;
14300;SDS011;7234;59.306;18.024;2023-11-19T04:00:10;2.00;;;1.43;;
14300;SDS011;7234;59.306;18.024;2023-11-19T04:02:39;1.30;;;1.20;;
14300;SDS011;7234;59.306;18.024;2023-11-19T04:05:06;1.90;;;1.33;;
14300;SDS011;7234;59.306;18.024;2023-11-19T04:07:34;1.60;;;1.20;;
14300;SDS011;7234;59.306;18.024;2023-11-19T04:10:02;1.93;;;1.60;;
14300;SDS011;7234;59.306;18.024;2023-11-19T04:12:31;1.90;;;1.50;;
14300;SDS011;7234;59.306;18.024;2023-11-19T04:14:58;1.57;;;1.20;;
14300;SDS011;7234;59.306;18.024;2023-11-19T04:17:24;1.30;;;1.20;;
14300;SDS011;7234;59.306;18.024;2023-11-19T04:19:52;1.53;;;1.40;;
14300;SDS011;7234;59.306;18.024;2023-11-19T04:22:19;1.40;;;1.10;;
14300;SDS011;7234;59.306;18.024;2023-11-19T04:24:46;2.03;;;1.60;;
14300;SDS011;7234;59.306;18.024;2023-11-19T04:27:13;1.80;;;1.60;;
14300;SDS011;7234;59.306;18.024;2023-11-19T04:29:42;1.20;;;1.10;;
14300;SDS011;7234;59.306;18.024;2023-11-19T04:32:11;2.23;;;1.40;;
14300;SDS011;7234;59.306;18.024;2023-11-19T04:34:37;1.43;;;1.33;;
14300;SDS011;7234;59.306;18.024;2023-11-19T04:37:04;1.30;;;1.20;;
14300;SDS011;7234;59.306;18.024;2023-11-19T04:39:31;1.87;;;1.43;;
14300;SDS011;7234;59.306;18.024;2023-11-19T04:41:58;2.10;;;1.57;;
14300;SDS011;7234;59.306;18.024;2023-11-19T04:44:25;1.93;;;1.40;;
14300;SDS011;7234;59.306;18.024;2023-11-19T04:46:54;1.87;;;1.30;;
14300;SDS011;7234;59.306;18.024;2023-11-19T04:49:21;1.30;;;1.20;;
14300;SDS011;7234;59.306;18.024;2023-11-19T04:51:48;2.23;;;1.40;;
14300;SDS011;7234;59.306;18.024;2023-11-19T04:54:15;2.10;;;1.60;;
14300;SDS011;7234;59.306;18.024;2023-11-19T04:56:44;3.87;;;1.40;;
14300;SDS011;7234;59.306;18.024;2023-11-19T04:59:12;5.67;;;1.60;;
14300;SDS011;7234;59.306;18.024;2023-11-19T05:01:39;5.00;;;1.80;;
14300;SDS011;7234;59.306;18.024;2023-11-19T05:04:08;5.83;;;1.70;;
14300;SDS011;7234;59.306;18.024;2023-11-19T05:06:36;1.47;;;1.37;;
14300;SDS011;7234;59.306;18.024;2023-11-19T05:09:03;2.10;;;1.40;;
14300;SDS011;7234;59.306;18.024;2023-11-19T05:11:32;1.93;;;1.37;;
14300;SDS011;7234;59.306;18.024;2023-11-19T05:14:02;1.70;;;1.43;;
14300;SDS011;7234;59.306;18.024;2023-11-19T05:16:30;1.50;;;1.40;;
14300;SDS011;7234;59.306;18.024;2023-11-19T05:18:57;2.13;;;1.60;;
14300;SDS011;7234;59.306;18.024;2023-11-19T05:21:26;1.43;;;1.33;;
14300;SDS011;7234;59.306;18.024;2023-11-19T05:23:53;1.70;;;1.60;;
14300;SDS011;7234;59.306;18.024;2023-11-19T05:26:23;1.47;;;1.20;;
14300;SDS011;7234;59.306;18.024;2023-11-19T05:28:51;2.90;;;1.40;;
14300;SDS011;7234;59.306;18.024;2023-11-19T05:31:18;1.63;;;1.53;;
14300;SDS011;7234;59.306;18.024;2023-11-19T05:33:45;1.70;;;1.60;;
14300;SDS011;7234;59.306;18.024;2023-11-19T05:36:12;2.70;;;1.67;;
14300;SDS011;7234;59.306;18.024;2023-11-19T05:38:40;2.50;;;1.70;;
14300;SDS011;7234;59.306;18.024;2023-11-19T05:41:08;2.33;;;1.80;;
14300;SDS011;7234;59.306;18.024;2023-11-19T05:43:35;3.07;;;2.10;;
14300;SDS011;7234;59.306;18.024;2023-11-19T05:46:02;2.10;;;1.60;;
14300;SDS011;7234;59.306;18.024;2023-11-19T05:48:30;2.07;;;1.30;;
14300;SDS011;7234;59.306;18.024;2023-11-19T05:50:57;1.97;;;1.67;;
14300;SDS011;7234;59.306;18.024;2023-11-19T05:53:25;1.80;;;1.50;;
14300;SDS011;7234;59.306;18.024;2023-11-19T05:55:53;2.77;;;1.73;;
14300;SDS011;7234;59.306;18.024;2023-11-19T05:58:23;1.77;;;1.63;;
14300;SDS011;7234;59.306;18.024;2023-11-19T06:00:53;2.53;;;1.83;;
14300;SDS011;7234;59.306;18.024;2023-11-19T06:03:20;2.47;;;1.70;;
14300;SDS011;7234;59.306;18.024;2023-11-19T06:05:49;2.00;;;1.80;;
14300;SDS011;7234;59.306;18.024;2023-11-19T06:08:16;3.00;;;1.80;;
14300;SDS011;7234;59.306;18.024;2023-11-19T06:10:45;2.40;;;2.10;;
14300;SDS011;7234;59.306;18.024;2023-11-19T06:13:13;2.37;;;1.77;;
14300;SDS011;7234;59.306;18.024;2023-11-19T06:15:41;2.93;;;1.90;;
14300;SDS011;7234;59.306;18.024;2023-11-19T06:18:08;3.73;;;2.17;;
14300;SDS011;7234;59.306;18.024;2023-11-19T06:20:37;2.83;;;1.87;;
14300;SDS011;7234;59.306;18.024;2023-11-19T06:23:04;3.33;;;2.10;;
14300;SDS011;7234;59.306;18.024;2023-11-19T06:25:31;3.30;;;2.10;;
14300;SDS011;7234;59.306;18.024;2023-11-19T06:28:00;1.87;;;1.73;;
14300;SDS011;7234;59.306;18.024;2023-11-19T06:30:29;2.33;;;1.90;;
14300;SDS011;7234;59.306;18.024;2023-11-19T06:32:57;2.70;;;1.80;;
14300;SDS011;7234;59.306;18.024;2023-11-19T06:35:24;3.63;;;1.93;;
14300;SDS011;7234;59.306;18.024;2023-11-19T06:37:51;1.83;;;1.63;;
14300;SDS011;7234;59.306;18.024;2023-11-19T06:40:18;3.27;;;2.00;;
14300;SDS011;7234;59.306;18.024;2023-11-19T06:42:45;3.93;;;2.33;;
14300;SDS011;7234;59.306;18.024;2023-11-19T06:45:12;3.53;;;2.00;;
14300;SDS011;7234;59.306;18.024;2023-11-19T06:47:41;3.30;;;2.33;;
14300;SDS011;7234;59.306;18.024;2023-11-19T06:50:08;2.43;;;1.70;;
14300;SDS011;7234;59.306;18.024;2023-11-19T06:52:37;4.00;;;2.17;;
14300;SDS011;7234;59.306;18.024;2023-11-19T06:55:05;5.07;;;2.60;;
14300;SDS011;7234;59.306;18.024;2023-11-19T06:57:32;3.17;;;2.07;;
14300;SDS011;7234;59.306;18.024;2023-11-19T06:59:59;2.77;;;2.30;;
14300;SDS011;7234;59.306;18.024;2023-11-19T07:02:26;3.43;;;2.20;;
14300;SDS011;7234;59.306;18.024;2023-11-19T07:04:55;2.67;;;2.30;;
14300;SDS011;7234;59.306;18.024;2023-11-19T07:07:22;4.00;;;2.60;;
14300;SDS011;7234;59.306;18.024;2023-11-19T07:09:49;4.10;;;2.20;;
14300;SDS011;7234;59.306;18.024;2023-11-19T07:12:16;3.73;;;2.27;;
14300;SDS011;7234;59.306;18.024;2023-11-19T07:14:43;4.17;;;2.83;;
14300;SDS011;7234;59.306;18.024;2023-11-19T07:17:11;2.50;;;1.93;;
14300;SDS011;7234;59.306;18.024;2023-11-19T07:19:38;3.13;;;2.40;;
14300;SDS011;7234;59.306;18.024;2023-11-19T07:22:07;5.30;;;2.40;;
14300;SDS011;7234;59.306;18.024;2023-11-19T07:24:34;2.90;;;2.40;;
14300;SDS011;7234;59.306;18.024;2023-11-19T07:27:01;3.53;;;2.60;;
14300;SDS011;7234;59.306;18.024;2023-11-19T07:29:29;4.90;;;2.73;;
14300;SDS011;7234;59.306;18.024;2023-11-19T07:31:56;3.57;;;2.57;;
14300;SDS011;7234;59.306;18.024;2023-11-19T07:34:23;3.13;;;2.40;;
14300;SDS011;7234;59.306;18.024;2023-11-19T07:36:50;2.40;;;2.20;;
14300;SDS011;7234;59.306;18.024;2023-11-19T07:39:19;3.77;;;2.53;;
14300;SDS011;7234;59.306;18.024;2023-11-19T07:41:47;3.87;;;2.43;;
14300;SDS011;7234;59.306;18.024;2023-11-19T07:44:14;3.13;;;2.67;;
14300;SDS011;7234;59.306;18.024;2023-11-19T07:46:41;4.00;;;2.53;;
14300;SDS011;7234;59.306;18.024;2023-11-19T07:49:10;5.70;;;2.47;;
14300;SDS011;7234;59.306;18.024;2023-11-19T07:51:37;4.50;;;2.83;;
14300;SDS011;7234;59.306;18.024;2023-11-19T07:54:06;3.60;;;2.43;;
14300;SDS011;7234;59.306;18.024;2023-11-19T07:56:35;3.17;;;2.27;;
14300;SDS011;7234;59.306;18.024;2023-11-19T07:59:02;4.07;;;2.80;;
14300;SDS011;7234;59.306;18.024;2023-11-19T08:01:29;3.10;;;2.50;;
14300;SDS011;7234;59.306;18.024;2023-11-19T08:03:56;7.73;;;2.60;;
14300;SDS011;7234;59.306;18.024;2023-11-19T08:06:23;5.00;;;2.90;;
14300;SDS011;7234;59.306;18.024;2023-11-19T08:08:51;3.37;;;2.43;;
14300;SDS011;7234;59.306;18.024;2023-11-19T08:11:18;6.10;;;2.60;;
14300;SDS011;7234;59.306;18.024;2023-11-19T08:13:47;3.17;;;2.67;;
14300;SDS011;7234;59.306;18.024;2023-11-19T08:16:14;3.30;;;2.77;;
14300;SDS011;7234;59.306;18.024;2023-11-19T08:18:41;3.73;;;2.87;;
14300;SDS011;7234;59.306;18.024;2023-11-19T08:21:09;3.73;;;2.53;;
14300;SDS011;7234;59.306;18.024;2023-11-19T08:23:36;4.70;;;2.57;;
14300;SDS011;7234;59.306;18.024;2023-11-19T08:26:03;7.00;;;2.50;;
14300;SDS011;7234;59.306;18.024;2023-11-19T08:28:31;4.33;;;2.20;;
14300;SDS011;7234;59.306;18.024;2023-11-19T08:31:00;4.37;;;2.97;;
14300;SDS011;7234;59.306;18.024;2023-11-19T08:33:29;4.77;;;2.70;;
14300;SDS011;7234;59.306;18.024;2023-11-19T08:35:56;3.30;;;2.60;;
14300;SDS011;7234;59.306;18.024;2023-11-19T08:38:23;5.73;;;2.50;;
14300;SDS011;7234;59.306;18.024;2023-11-19T08:40:50;4.63;;;3.20;;
14300;SDS011;7234;59.306;18.024;2023-11-19T08:43:18;3.47;;;2.67;;
14300;SDS011;7234;59.306;18.024;2023-11-19T08:45:45;3.20;;;2.23;;
14300;SDS011;7234;59.306;18.024;2023-11-19T08:48:13;3.53;;;2.90;;
14300;SDS011;7234;59.306;18.024;2023-11-19T08:50:40;3.87;;;3.00;;
14300;SDS011;7234;59.306;18.024;2023-11-19T08:53:07;6.37;;;2.80;;
14300;SDS011;7234;59.306;18.024;2023-11-19T08:55:34;3.10;;;2.67;;
14300;SDS011;7234;59.306;18.024;2023-11-19T08:58:02;3.97;;;2.50;;
14300;SDS011;7234;59.306;18.024;2023-11-19T09:00:29;3.37;;;2.43;;
14300;SDS011;7234;59.306;18.024;2023-11-19T09:02:57;4.83;;;2.70;;
14300;SDS011;7234;59.306;18.024;2023-11-19T09:05:26;5.03;;;2.37;;
14300;SDS011;7234;59.306;18.024;2023-11-19T09:07:53;3.63;;;2.40;;
14300;SDS011;7234;59.306;18.024;2023-11-19T09:10:20;4.83;;;2.77;;
14300;SDS011;7234;59.306;18.024;2023-11-19T09:12:47;3.00;;;2.40;;
14300;SDS011;7234;59.306;18.024;2023-11-19T09:15:14;3.33;;;2.70;;
14300;SDS011;7234;59.306;18.024;2023-11-19T09:17:41;3.50;;;2.73;;
14300;SDS011;7234;59.306;18.024;2023-11-19T09:20:10;5.63;;;2.63;;
14300;SDS011;7234;59.306;18.024;2023-11-19T09:22:41;2.97;;;2.37;;
14300;SDS011;7234;59.306;18.024;2023-11-19T09:25:09;5.67;;;2.70;;
14300;SDS011;7234;59.306;18.024;2023-11-19T09:27:36;2.83;;;2.43;;
14300;SDS011;7234;59.306;18.024;2023-11-19T09:30:03;3.10;;;2.67;;
14300;SDS011;7234;59.306;18.024;2023-11-19T09:32:31;3.70;;;2.43;;
14300;SDS011;7234;59.306;18.024;2023-11-19T09:34:58;5.63;;;2.70;;
14300;SDS011;7234;59.306;18.024;2023-11-19T09:37:25;3.80;;;2.63;;
14300;SDS011;7234;59.306;18.024;2023-11-19T09:39:54;5.80;;;2.40;;
14300;SDS011;7234;59.306;18.024;2023-11-19T09:42:21;3.10;;;2.20;;
14300;SDS011;7234;59.306;18.024;2023-11-19T09:44:50;3.47;;;2.60;;
14300;SDS011;7234;59.306;18.024;2023-11-19T09:47:19;3.30;;;2.33;;
14300;SDS011;7234;59.306;18.024;2023-11-19T09:49:46;4.57;;;2.30;;
14300;SDS011;7234;59.306;18.024;2023-11-19T09:52:15;2.77;;;2.03;;
14300;SDS011;7234;59.306;18.024;2023-11-19T09:54:42;2.13;;;1.90;;
14300;SDS011;7234;59.306;18.024;2023-11-19T09:57:10;4.67;;;2.77;;
14300;SDS011;7234;59.306;18.024;2023-11-19T09:59:42;3.17;;;2.57;;
14300;SDS011;7234;59.306;18.024;2023-11-19T10:02:10;3.67;;;2.53;;
14300;SDS011;7234;59.306;18.024;2023-11-19T10:04:38;3.50;;;2.63;;
14300;SDS011;7234;59.306;18.024;2023-11-19T10:07:09;3.67;;;2.37;;
14300;SDS011;7234;59.306;18.024;2023-11-19T10:09:36;5.70;;;2.40;;
14300;SDS011;7234;59.306;18.024;2023-11-19T10:12:03;6.20;;;2.27;;
14300;SDS011;7234;59.306;18.024;2023-11-19T10:14:32;3.87;;;2.17;;
14300;SDS011;7234;59.306;18.024;2023-11-19T10:17:03;3.00;;;1.83;;
14300;SDS011;7234;59.306;18.024;2023-11-19T10:19:31;4.43;;;2.37;;
14300;SDS011;7234;59.306;18.024;2023-11-19T10:22:01;3.10;;;2.10;;
14300;SDS011;7234;59.306;18.024;2023-11-19T10:24:31;1.90;;;1.70;;
14300;SDS011;7234;59.306;18.024;2023-11-19T10:26:59;3.03;;;1.93;;
14300;SDS011;7234;59.306;18.024;2023-11-19T10:29:28;3.00;;;2.10;;
14300;SDS011;7234;59.306;18.024;2023-11-19T10:31:57;2.50;;;1.90;;
14300;SDS011;7234;59.306;18.024;2023-11-19T10:34:25;5.97;;;2.30;;
14300;SDS011;7234;59.306;18.024;2023-11-19T10:36:53;4.10;;;2.20;;
14300;SDS011;7234;59.306;18.024;2023-11-19T10:39:20;2.50;;;2.00;;
14300;SDS011;7234;59.306;18.024;2023-11-19T10:41:48;4.00;;;2.00;;
14300;SDS011;7234;59.306;18.024;2023-11-19T10:44:30;3.40;;;2.07;;
14300;SDS011;7234;59.306;18.024;2023-11-19T10:47:02;5.40;;;2.30;;
14300;SDS011;7234;59.306;18.024;2023-11-19T10:49:34;2.63;;;1.90;;
14300;SDS011;7234;59.306;18.024;2023-11-19T10:52:01;3.63;;;2.10;;
14300;SDS011;7234;59.306;18.024;2023-11-19T10:54:33;2.77;;;2.10;;
14300;SDS011;7234;59.306;18.024;2023-11-19T10:57:03;3.50;;;2.20;;
14300;SDS011;7234;59.306;18.024;2023-11-19T10:59:37;3.27;;;2.27;;
14300;SDS011;7234;59.306;18.024;2023-11-19T11:02:06;4.10;;;2.23;;
14300;SDS011;7234;59.306;18.024;2023-11-19T11:04:37;4.50;;;2.10;;
14300;SDS011;7234;59.306;18.024;2023-11-19T11:07:07;4.33;;;2.20;;
14300;SDS011;7234;59.306;18.024;2023-11-19T11:09:36;4.87;;;1.97;;
14300;SDS011;7234;59.306;18.024;2023-11-19T11:12:04;2.23;;;1.90;;
14300;SDS011;7234;59.306;18.024;2023-11-19T11:14:33;2.53;;;1.70;;
14300;SDS011;7234;59.306;18.024;2023-11-19T11:17:07;3.17;;;1.90;;
14300;SDS011;7234;59.306;18.024;2023-11-19T11:19:36;2.17;;;1.63;;
14300;SDS011;7234;59.306;18.024;2023-11-19T11:22:04;2.87;;;2.03;;
14300;SDS011;7234;59.306;18.024;2023-11-19T11:24:37;4.60;;;1.90;;
14300;SDS011;7234;59.306;18.024;2023-11-19T11:27:40;2.77;;;2.13;;
14300;SDS011;7234;59.306;18.024;2023-11-19T11:30:20;1.77;;;1.60;;
14300;SDS011;7234;59.306;18.024;2023-11-19T11:33:02;1.90;;;1.63;;
14300;SDS011;7234;59.306;18.024;2023-11-19T11:35:44;3.00;;;2.20;;
14300;SDS011;7234;59.306;18.024;2023-11-19T11:38:21;2.23;;;1.83;;
14300;SDS011;7234;59.306;18.024;2023-11-19T11:43:45;2.40;;;1.87;;
14300;SDS011;7234;59.306;18.024;2023-11-19T11:49:23;1.53;;;1.43;;
14300;SDS011;7234;59.306;18.024;2023-11-19T11:52:00;2.00;;;1.70;;
14300;SDS011;7234;59.306;18.024;2023-11-19T11:54:28;2.27;;;1.90;;
14300;SDS011;7234;59.306;18.024;2023-11-19T11:59:46;3.90;;;2.23;;
14300;SDS011;7234;59.306;18.024;2023-11-19T12:02:18;2.33;;;1.90;;
14300;SDS011;7234;59.306;18.024;2023-11-19T12:04:51;2.07;;;1.70;;
14300;SDS011;7234;59.306;18.024;2023-11-19T12:07:19;2.80;;;1.87;;
14300;SDS011;7234;59.306;18.024;2023-11-19T12:09:48;2.47;;;2.10;;
14300;SDS011;7234;59.306;18.024;2023-11-19T12:12:17;2.90;;;2.10;;
14300;SDS011;7234;59.306;18.024;2023-11-19T12:17:41;2.57;;;1.87;;
14300;SDS011;7234;59.306;18.024;2023-11-19T12:20:15;6.80;;;2.13;;
14300;SDS011;7234;59.306;18.024;2023-11-19T12:22:44;3.50;;;2.00;;
14300;SDS011;7234;59.306;18.024;2023-11-19T12:25:14;3.47;;;2.17;;
14300;SDS011;7234;59.306;18.024;2023-11-19T12:27:43;2.80;;;2.07;;
14300;SDS011;7234;59.306;18.024;2023-11-19T12:30:11;2.23;;;1.67;;
14300;SDS011;7234;59.306;18.024;2023-11-19T12:32:39;3.93;;;2.10;;
14300;SDS011;7234;59.306;18.024;2023-11-19T12:35:07;3.03;;;2.33;;
14300;SDS011;7234;59.306;18.024;2023-11-19T12:37:44;2.73;;;2.17;;
14300;SDS011;7234;59.306;18.024;2023-11-19T12:40:13;2.87;;;1.90;;
14300;SDS011;7234;59.306;18.024;2023-11-19T12:42:42;4.57;;;2.27;;
14300;SDS011;7234;59.306;18.024;2023-11-19T12:45:09;3.20;;;2.20;;
14300;SDS011;7234;59.306;18.024;2023-11-19T12:47:37;3.77;;;2.30;;
14300;SDS011;7234;59.306;18.024;2023-11-19T12:50:05;4.03;;;2.40;;
14300;SDS011;7234;59.306;18.024;2023-11-19T12:52:33;3.20;;;2.50;;
14300;SDS011;7234;59.306;18.024;2023-11-19T12:55:03;2.70;;;2.33;;
14300;SDS011;7234;59.306;18.024;2023-11-19T12:57:35;5.57;;;2.50;;
14300;SDS011;7234;59.306;18.024;2023-11-19T13:00:04;3.17;;;2.10;;
14300;SDS011;7234;59.306;18.024;2023-11-19T13:02:44;3.63;;;2.50;;
14300;SDS011;7234;59.306;18.024;2023-11-19T13:05:22;3.00;;;2.33;;
14300;SDS011;7234;59.306;18.024;2023-11-19T13:08:00;3.47;;;2.30;;
14300;SDS011;7234;59.306;18.024;2023-11-19T13:10:29;3.33;;;2.60;;
14300;SDS011;7234;59.306;18.024;2023-11-19T13:13:03;3.93;;;2.60;;
14300;SDS011;7234;59.306;18.024;2023-11-19T13:15:31;3.63;;;2.60;;
14300;SDS011;7234;59.306;18.024;2023-11-19T13:17:58;3.70;;;2.50;;
14300;SDS011;7234;59.306;18.024;2023-11-19T13:20:26;2.83;;;2.30;;
14300;SDS011;7234;59.306;18.024;2023-11-19T13:22:54;2.77;;;2.00;;
14300;SDS011;7234;59.306;18.024;2023-11-19T13:25:21;3.77;;;2.50;;
14300;SDS011;7234;59.306;18.024;2023-11-19T13:27:50;3.37;;;2.43;;
14300;SDS011;7234;59.306;18.024;2023-11-19T13:30:17;2.87;;;2.00;;
14300;SDS011;7234;59.306;18.024;2023-11-19T13:32:44;3.83;;;2.17;;
14300;SDS011;7234;59.306;18.024;2023-11-19T13:35:11;2.70;;;2.20;;
14300;SDS011;7234;59.306;18.024;2023-11-19T13:37:38;3.67;;;1.90;;
14300;SDS011;7234;59.306;18.024;2023-11-19T13:40:06;3.40;;;2.60;;
14300;SDS011;7234;59.306;18.024;2023-11-19T13:42:35;4.30;;;2.60;;
14300;SDS011;7234;59.306;18.024;2023-11-19T13:45:07;3.33;;;2.50;;
14300;SDS011;7234;59.306;18.024;2023-11-19T13:47:37;3.23;;;2.40;;
14300;SDS011;7234;59.306;18.024;2023-11-19T13:50:07;3.80;;;2.83;;
14300;SDS011;7234;59.306;18.024;2023-11-19T13:52:35;3.30;;;2.27;;
14300;SDS011;7234;59.306;18.024;2023-11-19T13:55:04;5.33;;;2.63;;
14300;SDS011;7234;59.306;18.024;2023-11-19T13:57:33;3.03;;;2.40;;
14300;SDS011;7234;59.306;18.024;2023-11-19T14:00:02;3.07;;;2.27;;
14300;SDS011;7234;59.306;18.024;2023-11-19T14:02:33;4.33;;;2.40;;
14300;SDS011;7234;59.306;18.024;2023-11-19T14:05:00;3.17;;;2.43;;
14300;SDS011;7234;59.306;18.024;2023-11-19T14:07:27;2.93;;;2.30;;
14300;SDS011;7234;59.306;18.024;2023-11-19T14:09:54;3.97;;;2.80;;
14300;SDS011;7234;59.306;18.024;2023-11-19T14:12:21;4.13;;;2.87;;
14300;SDS011;7234;59.306;18.024;2023-11-19T14:14:48;3.00;;;2.53;;
14300;SDS011;7234;59.306;18.024;2023-11-19T14:17:15;4.33;;;2.83;;
14300;SDS011;7234;59.306;18.024;2023-11-19T14:19:45;3.37;;;2.63;;
14300;SDS011;7234;59.306;18.024;2023-11-19T14:22:12;5.77;;;3.37;;
14300;SDS011;7234;59.306;18.024;2023-11-19T14:24:39;5.07;;;2.83;;
14300;SDS011;7234;59.306;18.024;2023-11-19T14:27:07;5.33;;;3.00;;
14300;SDS011;7234;59.306;18.024;2023-11-19T14:29:34;2.73;;;2.30;;
14300;SDS011;7234;59.306;18.024;2023-11-19T14:32:02;4.43;;;2.90;;
14300;SDS011;7234;59.306;18.024;2023-11-19T14:34:29;4.73;;;2.97;;
14300;SDS011;7234;59.306;18.024;2023-11-19T14:36:58;3.60;;;2.83;;
14300;SDS011;7234;59.306;18.024;2023-11-19T14:39:26;3.97;;;2.53;;
14300;SDS011;7234;59.306;18.024;2023-11-19T14:41:54;5.67;;;3.00;;
14300;SDS011;7234;59.306;18.024;2023-11-19T14:44:23;4.20;;;2.80;;
14300;SDS011;7234;59.306;18.024;2023-11-19T14:46:51;4.90;;;2.53;;
14300;SDS011;7234;59.306;18.024;2023-11-19T14:49:18;3.17;;;1.97;;
14300;SDS011;7234;59.306;18.024;2023-11-19T14:51:45;4.63;;;2.67;;
14300;SDS011;7234;59.306;18.024;2023-11-19T14:54:13;3.00;;;2.47;;
14300;SDS011;7234;59.306;18.024;2023-11-19T14:56:41;6.00;;;2.80;;
14300;SDS011;7234;59.306;18.024;2023-11-19T14:59:08;2.93;;;2.30;;
14300;SDS011;7234;59.306;18.024;2023-11-19T15:01:35;3.67;;;2.40;;
14300;SDS011;7234;59.306;18.024;2023-11-19T15:04:02;5.30;;;2.60;;
14300;SDS011;7234;59.306;18.024;2023-11-19T15:06:29;3.17;;;2.30;;